sensor_id;sensor_type;location;lat;lon;timestamp;P1;durP1;ratioP1;P2;durP2;ratioP2
1414;SDS011;702;49.466;11.086;2023-05-10T00:01:49;4.53;;;4.13;;
1414;SDS011;702;49.466;11.086;2023-05-10T00:04:16;4.63;;;3.80;;
1414;SDS011;702;49.466;11.086;2023-05-10T00:06:44;4.53;;;4.13;;
1414;SDS011;702;49.466;11.086;2023-05-10T00:09:11;5.30;;;3.93;;
1414;SDS011;702;49.466;11.086;2023-05-10T00:11:40;5.87;;;4.00;;
1414;SDS011;702;49.466;11.086;2023-05-10T00:14:07;5.80;;;4.80;;
1414;SDS011;702;49.466;11.086;2023-05-10T00:16:34;6.90;;;4.90;;
1414;SDS011;702;49.466;11.086;2023-05-10T00:19:01;6.50;;;4.23;;
1414;SDS011;702;49.466;11.086;2023-05-10T00:21:28;4.23;;;3.80;;
1414;SDS011;702;49.466;11.086;2023-05-10T00:23:55;5.97;;;4.67;;
1414;SDS011;702;49.466;11.086;2023-05-10T00:26:22;7.27;;;4.80;;
1414;SDS011;702;49.466;11.086;2023-05-10T00:28:51;5.40;;;4.53;;
1414;SDS011;702;49.466;11.086;2023-05-10T00:31:18;5.80;;;4.80;;
1414;SDS011;702;49.466;11.086;2023-05-10T00:33:46;6.17;;;5.23;;
1414;SDS011;702;49.466;11.086;2023-05-10T00:36:13;6.60;;;5.73;;
1414;SDS011;702;49.466;11.086;2023-05-10T00:38:40;6.90;;;4.73;;
1414;SDS011;702;49.466;11.086;2023-05-10T00:41:07;7.27;;;5.10;;
1414;SDS011;702;49.466;11.086;2023-05-10T00:43:34;6.43;;;5.30;;
1414;SDS011;702;49.466;11.086;2023-05-10T00:46:03;6.77;;;5.50;;
1414;SDS011;702;49.466;11.086;2023-05-10T00:48:30;6.00;;;5.20;;
1414;SDS011;702;49.466;11.086;2023-05-10T00:50:58;7.73;;;5.80;;
1414;SDS011;702;49.466;11.086;2023-05-10T00:53:25;6.90;;;5.40;;
1414;SDS011;702;49.466;11.086;2023-05-10T00:55:53;6.67;;;5.50;;
1414;SDS011;702;49.466;11.086;2023-05-10T00:58:20;8.47;;;6.03;;
1414;SDS011;702;49.466;11.086;2023-05-10T01:00:53;6.70;;;5.13;;
1414;SDS011;702;49.466;11.086;2023-05-10T01:03:23;7.63;;;5.77;;
1414;SDS011;702;49.466;11.086;2023-05-10T01:05:51;7.07;;;5.70;;
1414;SDS011;702;49.466;11.086;2023-05-10T01:08:19;7.90;;;6.43;;
1414;SDS011;702;49.466;11.086;2023-05-10T01:10:46;7.83;;;6.13;;
1414;SDS011;702;49.466;11.086;2023-05-10T01:13:15;6.43;;;5.40;;
1414;SDS011;702;49.466;11.086;2023-05-10T01:15:58;7.17;;;5.57;;
1414;SDS011;702;49.466;11.086;2023-05-10T01:18:30;6.87;;;6.20;;
1414;SDS011;702;49.466;11.086;2023-05-10T01:21:04;7.30;;;5.60;;
1414;SDS011;702;49.466;11.086;2023-05-10T01:23:45;6.37;;;5.77;;
1414;SDS011;702;49.466;11.086;2023-05-10T01:26:42;6.27;;;5.40;;
1414;SDS011;702;49.466;11.086;2023-05-10T01:29:51;6.63;;;5.73;;
1414;SDS011;702;49.466;11.086;2023-05-10T01:32:43;7.00;;;5.67;;
1414;SDS011;702;49.466;11.086;2023-05-10T01:35:18;11.00;;;5.80;;
1414;SDS011;702;49.466;11.086;2023-05-10T01:37:56;6.50;;;5.37;;
1414;SDS011;702;49.466;11.086;2023-05-10T01:40:35;6.80;;;5.60;;
1414;SDS011;702;49.466;11.086;2023-05-10T01:43:08;5.43;;;4.83;;
1414;SDS011;702;49.466;11.086;2023-05-10T01:45:45;5.97;;;4.70;;
1414;SDS011;702;49.466;11.086;2023-05-10T01:48:27;7.20;;;5.00;;
1414;SDS011;702;49.466;11.086;2023-05-10T01:50:55;6.60;;;4.77;;
1414;SDS011;702;49.466;11.086;2023-05-10T01:53:23;6.37;;;5.40;;
1414;SDS011;702;49.466;11.086;2023-05-10T01:55:52;6.20;;;5.23;;
1414;SDS011;702;49.466;11.086;2023-05-10T01:58:22;7.30;;;5.60;;
1414;SDS011;702;49.466;11.086;2023-05-10T02:00:54;5.50;;;4.90;;
1414;SDS011;702;49.466;11.086;2023-05-10T02:03:25;6.83;;;5.30;;
1414;SDS011;702;49.466;11.086;2023-05-10T02:05:54;6.47;;;5.10;;
1414;SDS011;702;49.466;11.086;2023-05-10T02:08:23;7.80;;;5.43;;
1414;SDS011;702;49.466;11.086;2023-05-10T02:10:52;8.17;;;6.80;;
1414;SDS011;702;49.466;11.086;2023-05-10T02:13:22;8.07;;;5.57;;
1414;SDS011;702;49.466;11.086;2023-05-10T02:15:51;8.80;;;5.67;;
1414;SDS011;702;49.466;11.086;2023-05-10T02:18:23;6.20;;;5.30;;
1414;SDS011;702;49.466;11.086;2023-05-10T02:20:55;7.57;;;5.60;;
1414;SDS011;702;49.466;11.086;2023-05-10T02:23:24;7.30;;;6.27;;
1414;SDS011;702;49.466;11.086;2023-05-10T02:25:56;5.90;;;4.93;;
1414;SDS011;702;49.466;11.086;2023-05-10T02:28:27;8.13;;;5.53;;
1414;SDS011;702;49.466;11.086;2023-05-10T02:30:57;5.90;;;5.20;;
1414;SDS011;702;49.466;11.086;2023-05-10T02:33:25;5.83;;;4.40;;
1414;SDS011;702;49.466;11.086;2023-05-10T02:35:55;3.83;;;3.43;;
1414;SDS011;702;49.466;11.086;2023-05-10T02:38:23;3.33;;;3.00;;
1414;SDS011;702;49.466;11.086;2023-05-10T02:40:52;3.97;;;3.43;;
1414;SDS011;702;49.466;11.086;2023-05-10T02:43:22;4.73;;;3.13;;
1414;SDS011;702;49.466;11.086;2023-05-10T02:45:50;3.93;;;3.10;;
1414;SDS011;702;49.466;11.086;2023-05-10T02:48:18;2.83;;;2.53;;
1414;SDS011;702;49.466;11.086;2023-05-10T02:50:48;4.47;;;3.13;;
1414;SDS011;702;49.466;11.086;2023-05-10T02:53:20;4.23;;;3.43;;
1414;SDS011;702;49.466;11.086;2023-05-10T02:55:54;4.07;;;2.97;;
1414;SDS011;702;49.466;11.086;2023-05-10T02:58:28;2.73;;;2.40;;
1414;SDS011;702;49.466;11.086;2023-05-10T03:00:59;5.43;;;3.00;;
1414;SDS011;702;49.466;11.086;2023-05-10T03:03:26;3.93;;;3.27;;
1414;SDS011;702;49.466;11.086;2023-05-10T03:05:55;3.30;;;2.63;;
1414;SDS011;702;49.466;11.086;2023-05-10T03:08:23;3.27;;;2.40;;
1414;SDS011;702;49.466;11.086;2023-05-10T03:10:54;2.20;;;1.80;;
1414;SDS011;702;49.466;11.086;2023-05-10T03:13:35;2.33;;;2.13;;
1414;SDS011;702;49.466;11.086;2023-05-10T03:16:14;2.30;;;2.03;;
1414;SDS011;702;49.466;11.086;2023-05-10T03:18:54;2.60;;;1.77;;
1414;SDS011;702;49.466;11.086;2023-05-10T03:21:31;1.40;;;1.30;;
1414;SDS011;702;49.466;11.086;2023-05-10T03:24:01;1.60;;;1.50;;
1414;SDS011;702;49.466;11.086;2023-05-10T03:26:36;1.43;;;1.33;;
1414;SDS011;702;49.466;11.086;2023-05-10T03:29:05;1.83;;;1.60;;
1414;SDS011;702;49.466;11.086;2023-05-10T03:31:34;1.97;;;1.87;;
1414;SDS011;702;49.466;11.086;2023-05-10T03:34:01;1.73;;;1.40;;
1414;SDS011;702;49.466;11.086;2023-05-10T03:36:28;2.57;;;1.70;;
1414;SDS011;702;49.466;11.086;2023-05-10T03:38:57;1.47;;;1.30;;
1414;SDS011;702;49.466;11.086;2023-05-10T03:41:24;1.50;;;1.40;;
1414;SDS011;702;49.466;11.086;2023-05-10T03:43:52;2.53;;;1.63;;
1414;SDS011;702;49.466;11.086;2023-05-10T03:46:19;1.57;;;1.40;;
1414;SDS011;702;49.466;11.086;2023-05-10T03:48:48;1.37;;;1.27;;
1414;SDS011;702;49.466;11.086;2023-05-10T03:51:15;1.10;;;0.73;;
1414;SDS011;702;49.466;11.086;2023-05-10T03:53:44;1.40;;;1.20;;
1414;SDS011;702;49.466;11.086;2023-05-10T03:56:14;1.17;;;0.90;;
1414;SDS011;702;49.466;11.086;2023-05-10T03:58:41;0.83;;;0.80;;
1414;SDS011;702;49.466;11.086;2023-05-10T04:01:09;1.67;;;1.03;;
1414;SDS011;702;49.466;11.086;2023-05-10T04:03:36;1.00;;;0.73;;
1414;SDS011;702;49.466;11.086;2023-05-10T04:06:04;1.03;;;0.83;;
1414;SDS011;702;49.466;11.086;2023-05-10T04:08:35;1.00;;;0.90;;
1414;SDS011;702;49.466;11.086;2023-05-10T04:11:06;0.97;;;0.90;;
1414;SDS011;702;49.466;11.086;2023-05-10T04:13:35;1.17;;;0.90;;
1414;SDS011;702;49.466;11.086;2023-05-10T04:16:03;0.93;;;0.80;;
1414;SDS011;702;49.466;11.086;2023-05-10T04:18:31;0.67;;;0.50;;
1414;SDS011;702;49.466;11.086;2023-05-10T04:21:00;0.90;;;0.90;;
1414;SDS011;702;49.466;11.086;2023-05-10T04:23:27;0.93;;;0.57;;
1414;SDS011;702;49.466;11.086;2023-05-10T04:25:59;1.43;;;0.63;;
1414;SDS011;702;49.466;11.086;2023-05-10T04:28:27;0.80;;;0.57;;
1414;SDS011;702;49.466;11.086;2023-05-10T04:31:01;0.50;;;0.50;;
1414;SDS011;702;49.466;11.086;2023-05-10T04:33:29;0.60;;;0.60;;
1414;SDS011;702;49.466;11.086;2023-05-10T04:35:56;0.50;;;0.50;;
1414;SDS011;702;49.466;11.086;2023-05-10T04:38:24;0.70;;;0.60;;
1414;SDS011;702;49.466;11.086;2023-05-10T04:40:52;0.80;;;0.70;;
1414;SDS011;702;49.466;11.086;2023-05-10T04:43:19;0.90;;;0.60;;
1414;SDS011;702;49.466;11.086;2023-05-10T04:45:46;0.63;;;0.60;;
1414;SDS011;702;49.466;11.086;2023-05-10T04:48:19;0.70;;;0.70;;
1414;SDS011;702;49.466;11.086;2023-05-10T04:50:46;0.80;;;0.60;;
1414;SDS011;702;49.466;11.086;2023-05-10T04:53:14;0.50;;;0.50;;
1414;SDS011;702;49.466;11.086;2023-05-10T04:55:42;0.73;;;0.73;;
1414;SDS011;702;49.466;11.086;2023-05-10T04:58:09;0.80;;;0.53;;
1414;SDS011;702;49.466;11.086;2023-05-10T05:00:36;0.93;;;0.83;;
1414;SDS011;702;49.466;11.086;2023-05-10T05:03:03;0.50;;;0.50;;
1414;SDS011;702;49.466;11.086;2023-05-10T05:05:32;0.70;;;0.60;;
1414;SDS011;702;49.466;11.086;2023-05-10T05:07:59;0.40;;;0.40;;
1414;SDS011;702;49.466;11.086;2023-05-10T05:10:26;0.60;;;0.53;;
1414;SDS011;702;49.466;11.086;2023-05-10T05:12:53;0.67;;;0.60;;
1414;SDS011;702;49.466;11.086;2023-05-10T05:15:21;0.87;;;0.70;;
1414;SDS011;702;49.466;11.086;2023-05-10T05:17:48;0.60;;;0.60;;
1414;SDS011;702;49.466;11.086;2023-05-10T05:20:16;0.63;;;0.63;;
1414;SDS011;702;49.466;11.086;2023-05-10T05:22:45;0.87;;;0.60;;
1414;SDS011;702;49.466;11.086;2023-05-10T05:25:12;4.33;;;0.60;;
1414;SDS011;702;49.466;11.086;2023-05-10T05:27:40;0.70;;;0.70;;
1414;SDS011;702;49.466;11.086;2023-05-10T05:30:07;0.83;;;0.60;;
1414;SDS011;702;49.466;11.086;2023-05-10T05:32:36;0.70;;;0.70;;
1414;SDS011;702;49.466;11.086;2023-05-10T05:35:04;0.50;;;0.50;;
1414;SDS011;702;49.466;11.086;2023-05-10T05:37:31;0.73;;;0.50;;
1414;SDS011;702;49.466;11.086;2023-05-10T05:40:00;0.70;;;0.60;;
1414;SDS011;702;49.466;11.086;2023-05-10T05:42:28;0.83;;;0.80;;
1414;SDS011;702;49.466;11.086;2023-05-10T05:44:56;0.83;;;0.83;;
1414;SDS011;702;49.466;11.086;2023-05-10T05:47:24;1.07;;;0.67;;
1414;SDS011;702;49.466;11.086;2023-05-10T05:49:51;1.03;;;0.70;;
1414;SDS011;702;49.466;11.086;2023-05-10T05:52:19;2.10;;;0.80;;
1414;SDS011;702;49.466;11.086;2023-05-10T05:54:46;0.80;;;0.80;;
1414;SDS011;702;49.466;11.086;2023-05-10T05:57:14;1.10;;;1.00;;
1414;SDS011;702;49.466;11.086;2023-05-10T05:59:42;0.73;;;0.73;;
1414;SDS011;702;49.466;11.086;2023-05-10T06:02:09;1.80;;;1.10;;
1414;SDS011;702;49.466;11.086;2023-05-10T06:04:36;0.90;;;0.90;;
1414;SDS011;702;49.466;11.086;2023-05-10T06:07:04;3.20;;;1.20;;
1414;SDS011;702;49.466;11.086;2023-05-10T06:09:31;1.70;;;0.87;;
1414;SDS011;702;49.466;11.086;2023-05-10T06:11:58;1.30;;;1.20;;
1414;SDS011;702;49.466;11.086;2023-05-10T06:14:28;0.90;;;0.90;;
1414;SDS011;702;49.466;11.086;2023-05-10T06:16:55;1.10;;;1.00;;
1414;SDS011;702;49.466;11.086;2023-05-10T06:19:24;1.30;;;1.17;;
1414;SDS011;702;49.466;11.086;2023-05-10T06:21:52;0.80;;;0.80;;
1414;SDS011;702;49.466;11.086;2023-05-10T06:24:19;1.30;;;1.20;;
1414;SDS011;702;49.466;11.086;2023-05-10T06:26:47;0.80;;;0.80;;
1414;SDS011;702;49.466;11.086;2023-05-10T06:29:15;1.30;;;1.10;;
1414;SDS011;702;49.466;11.086;2023-05-10T06:31:46;0.97;;;0.97;;
1414;SDS011;702;49.466;11.086;2023-05-10T06:34:13;1.07;;;0.97;;
1414;SDS011;702;49.466;11.086;2023-05-10T06:36:40;0.93;;;0.93;;
1414;SDS011;702;49.466;11.086;2023-05-10T06:39:07;1.10;;;0.87;;
1414;SDS011;702;49.466;11.086;2023-05-10T06:41:37;0.80;;;0.80;;
1414;SDS011;702;49.466;11.086;2023-05-10T06:44:04;0.90;;;0.73;;
1414;SDS011;702;49.466;11.086;2023-05-10T06:46:31;1.60;;;1.20;;
1414;SDS011;702;49.466;11.086;2023-05-10T06:49:00;1.00;;;1.00;;
1414;SDS011;702;49.466;11.086;2023-05-10T06:51:27;1.40;;;1.00;;
1414;SDS011;702;49.466;11.086;2023-05-10T06:53:54;1.33;;;1.23;;
1414;SDS011;702;49.466;11.086;2023-05-10T06:56:22;1.20;;;1.08;;
1414;SDS011;702;49.466;11.086;2023-05-10T06:58:49;2.30;;;1.03;;
1414;SDS011;702;49.466;11.086;2023-05-10T07:01:16;1.10;;;1.00;;
1414;SDS011;702;49.466;11.086;2023-05-10T07:03:43;1.30;;;1.20;;
1414;SDS011;702;49.466;11.086;2023-05-10T07:06:12;1.07;;;0.97;;
1414;SDS011;702;49.466;11.086;2023-05-10T07:08:39;1.33;;;1.07;;
1414;SDS011;702;49.466;11.086;2023-05-10T07:11:06;1.20;;;0.90;;
1414;SDS011;702;49.466;11.086;2023-05-10T07:13:34;1.40;;;1.27;;
1414;SDS011;702;49.466;11.086;2023-05-10T07:16:01;0.93;;;0.93;;
1414;SDS011;702;49.466;11.086;2023-05-10T07:18:29;0.87;;;0.87;;
1414;SDS011;702;49.466;11.086;2023-05-10T07:20:56;0.87;;;0.87;;
1414;SDS011;702;49.466;11.086;2023-05-10T07:23:27;1.00;;;0.60;;
1414;SDS011;702;49.466;11.086;2023-05-10T07:25:55;1.20;;;0.90;;
1414;SDS011;702;49.466;11.086;2023-05-10T07:28:23;1.10;;;0.90;;
1414;SDS011;702;49.466;11.086;2023-05-10T07:30:50;0.87;;;0.87;;
1414;SDS011;702;49.466;11.086;2023-05-10T07:33:18;1.17;;;0.83;;
1414;SDS011;702;49.466;11.086;2023-05-10T07:35:45;0.70;;;0.70;;
1414;SDS011;702;49.466;11.086;2023-05-10T07:38:13;1.33;;;1.00;;
1414;SDS011;702;49.466;11.086;2023-05-10T07:40:41;1.33;;;1.00;;
1414;SDS011;702;49.466;11.086;2023-05-10T07:43:08;0.70;;;0.70;;
1414;SDS011;702;49.466;11.086;2023-05-10T07:45:36;1.50;;;1.00;;
1414;SDS011;702;49.466;11.086;2023-05-10T07:48:03;1.13;;;1.03;;
1414;SDS011;702;49.466;11.086;2023-05-10T07:50:30;0.97;;;0.90;;
1414;SDS011;702;49.466;11.086;2023-05-10T07:52:57;0.97;;;0.90;;
1414;SDS011;702;49.466;11.086;2023-05-10T07:55:24;1.23;;;0.73;;
1414;SDS011;702;49.466;11.086;2023-05-10T07:57:53;1.00;;;0.90;;
1414;SDS011;702;49.466;11.086;2023-05-10T08:00:20;1.30;;;1.03;;
1414;SDS011;702;49.466;11.086;2023-05-10T08:02:48;0.90;;;0.80;;
1414;SDS011;702;49.466;11.086;2023-05-10T08:05:15;1.20;;;1.10;;
1414;SDS011;702;49.466;11.086;2023-05-10T08:07:43;1.13;;;0.97;;
1414;SDS011;702;49.466;11.086;2023-05-10T08:10:12;2.33;;;1.00;;
1414;SDS011;702;49.466;11.086;2023-05-10T08:12:39;1.37;;;1.00;;
1414;SDS011;702;49.466;11.086;2023-05-10T08:15:08;1.90;;;1.20;;
1414;SDS011;702;49.466;11.086;2023-05-10T08:17:36;0.97;;;0.87;;
1414;SDS011;702;49.466;11.086;2023-05-10T08:20:05;2.00;;;1.20;;
1414;SDS011;702;49.466;11.086;2023-05-10T08:22:33;1.10;;;1.00;;
1414;SDS011;702;49.466;11.086;2023-05-10T08:25:01;1.00;;;0.90;;
1414;SDS011;702;49.466;11.086;2023-05-10T08:27:28;1.23;;;1.13;;
1414;SDS011;702;49.466;11.086;2023-05-10T08:29:56;1.00;;;0.90;;
1414;SDS011;702;49.466;11.086;2023-05-10T08:32:25;1.13;;;1.03;;
1414;SDS011;702;49.466;11.086;2023-05-10T08:34:52;1.07;;;1.00;;
1414;SDS011;702;49.466;11.086;2023-05-10T08:37:19;1.57;;;1.37;;
1414;SDS011;702;49.466;11.086;2023-05-10T08:39:47;1.43;;;0.77;;
1414;SDS011;702;49.466;11.086;2023-05-10T08:42:15;3.77;;;1.30;;
1414;SDS011;702;49.466;11.086;2023-05-10T08:44:46;1.20;;;1.10;;
1414;SDS011;702;49.466;11.086;2023-05-10T08:47:15;1.53;;;1.40;;
1414;SDS011;702;49.466;11.086;2023-05-10T08:49:45;1.20;;;1.07;;
1414;SDS011;702;49.466;11.086;2023-05-10T08:52:16;1.57;;;1.10;;
1414;SDS011;702;49.466;11.086;2023-05-10T08:54:44;1.10;;;1.00;;
1414;SDS011;702;49.466;11.086;2023-05-10T08:57:12;0.90;;;0.90;;
1414;SDS011;702;49.466;11.086;2023-05-10T08:59:40;1.40;;;1.17;;
1414;SDS011;702;49.466;11.086;2023-05-10T09:02:07;1.17;;;1.03;;
1414;SDS011;702;49.466;11.086;2023-05-10T09:04:38;1.80;;;0.93;;
1414;SDS011;702;49.466;11.086;2023-05-10T09:07:07;1.30;;;1.13;;
1414;SDS011;702;49.466;11.086;2023-05-10T09:09:34;1.47;;;1.13;;
1414;SDS011;702;49.466;11.086;2023-05-10T09:12:10;1.80;;;1.70;;
1414;SDS011;702;49.466;11.086;2023-05-10T09:14:38;1.40;;;1.10;;
1414;SDS011;702;49.466;11.086;2023-05-10T09:17:06;2.13;;;1.20;;
1414;SDS011;702;49.466;11.086;2023-05-10T09:19:33;1.33;;;1.23;;
1414;SDS011;702;49.466;11.086;2023-05-10T09:22:00;2.10;;;1.43;;
1414;SDS011;702;49.466;11.086;2023-05-10T09:24:29;1.90;;;1.60;;
1414;SDS011;702;49.466;11.086;2023-05-10T09:26:57;2.63;;;1.80;;
1414;SDS011;702;49.466;11.086;2023-05-10T09:29:25;1.63;;;1.53;;
1414;SDS011;702;49.466;11.086;2023-05-10T09:31:54;1.67;;;1.57;;
1414;SDS011;702;49.466;11.086;2023-05-10T09:34:31;2.23;;;1.53;;
1414;SDS011;702;49.466;11.086;2023-05-10T09:37:01;2.37;;;1.60;;
1414;SDS011;702;49.466;11.086;2023-05-10T09:39:32;1.60;;;1.50;;
1414;SDS011;702;49.466;11.086;2023-05-10T09:42:02;2.20;;;2.00;;
1414;SDS011;702;49.466;11.086;2023-05-10T09:44:31;2.90;;;2.00;;
1414;SDS011;702;49.466;11.086;2023-05-10T09:46:58;1.70;;;1.60;;
1414;SDS011;702;49.466;11.086;2023-05-10T09:49:26;2.97;;;1.87;;
1414;SDS011;702;49.466;11.086;2023-05-10T09:52:00;1.57;;;1.47;;
1414;SDS011;702;49.466;11.086;2023-05-10T09:54:28;2.27;;;1.97;;
1414;SDS011;702;49.466;11.086;2023-05-10T09:56:57;2.00;;;1.73;;
1414;SDS011;702;49.466;11.086;2023-05-10T09:59:25;2.27;;;1.57;;
1414;SDS011;702;49.466;11.086;2023-05-10T10:01:55;1.30;;;1.20;;
1414;SDS011;702;49.466;11.086;2023-05-10T10:04:24;1.60;;;1.40;;
1414;SDS011;702;49.466;11.086;2023-05-10T10:06:58;1.47;;;1.37;;
1414;SDS011;702;49.466;11.086;2023-05-10T10:09:27;1.27;;;1.17;;
1414;SDS011;702;49.466;11.086;2023-05-10T10:11:55;3.70;;;1.80;;
1414;SDS011;702;49.466;11.086;2023-05-10T10:14:23;2.27;;;1.60;;
1414;SDS011;702;49.466;11.086;2023-05-10T10:16:52;1.50;;;1.40;;
1414;SDS011;702;49.466;11.086;2023-05-10T10:19:19;1.47;;;1.30;;
1414;SDS011;702;49.466;11.086;2023-05-10T10:21:47;1.10;;;1.00;;
1414;SDS011;702;49.466;11.086;2023-05-10T10:24:16;1.30;;;1.20;;
1414;SDS011;702;49.466;11.086;2023-05-10T10:26:43;1.50;;;1.40;;
1414;SDS011;702;49.466;11.086;2023-05-10T10:29:20;1.37;;;1.27;;
1414;SDS011;702;49.466;11.086;2023-05-10T10:31:57;0.93;;;0.90;;
1414;SDS011;702;49.466;11.086;2023-05-10T10:34:36;1.37;;;1.03;;
1414;SDS011;702;49.466;11.086;2023-05-10T10:37:05;1.60;;;1.23;;
1414;SDS011;702;49.466;11.086;2023-05-10T10:39:33;1.30;;;0.90;;
1414;SDS011;702;49.466;11.086;2023-05-10T10:42:02;1.20;;;1.10;;
1414;SDS011;702;49.466;11.086;2023-05-10T10:44:35;1.00;;;0.90;;
1414;SDS011;702;49.466;11.086;2023-05-10T10:47:22;1.13;;;1.03;;
1414;SDS011;702;49.466;11.086;2023-05-10T10:50:03;1.23;;;1.13;;
1414;SDS011;702;49.466;11.086;2023-05-10T10:52:32;1.10;;;1.00;;
1414;SDS011;702;49.466;11.086;2023-05-10T10:55:02;1.10;;;1.00;;
1414;SDS011;702;49.466;11.086;2023-05-10T10:57:35;1.47;;;1.10;;
1414;SDS011;702;49.466;11.086;2023-05-10T11:00:20;1.27;;;1.17;;
1414;SDS011;702;49.466;11.086;2023-05-10T11:02:56;1.87;;;1.00;;
1414;SDS011;702;49.466;11.086;2023-05-10T11:08:12;2.70;;;1.60;;
1414;SDS011;702;49.466;11.086;2023-05-10T11:10:49;1.20;;;1.10;;
1414;SDS011;702;49.466;11.086;2023-05-10T11:13:29;1.90;;;1.30;;
1414;SDS011;702;49.466;11.086;2023-05-10T11:15:59;1.03;;;1.00;;
1414;SDS011;702;49.466;11.086;2023-05-10T11:18:54;1.20;;;1.10;;
1414;SDS011;702;49.466;11.086;2023-05-10T11:21:27;1.83;;;1.20;;
1414;SDS011;702;49.466;11.086;2023-05-10T11:23:55;2.50;;;1.10;;
1414;SDS011;702;49.466;11.086;2023-05-10T11:26:24;2.80;;;1.20;;
1414;SDS011;702;49.466;11.086;2023-05-10T11:28:52;1.40;;;1.30;;
1414;SDS011;702;49.466;11.086;2023-05-10T11:31:26;1.67;;;1.40;;
1414;SDS011;702;49.466;11.086;2023-05-10T11:33:54;1.40;;;1.30;;
1414;SDS011;702;49.466;11.086;2023-05-10T11:36:24;1.70;;;1.60;;
1414;SDS011;702;49.466;11.086;2023-05-10T11:38:53;1.20;;;0.93;;
1414;SDS011;702;49.466;11.086;2023-05-10T11:41:22;2.00;;;1.20;;
1414;SDS011;702;49.466;11.086;2023-05-10T11:43:50;1.60;;;1.50;;
1414;SDS011;702;49.466;11.086;2023-05-10T11:46:19;1.57;;;1.30;;
1414;SDS011;702;49.466;11.086;2023-05-10T11:48:50;1.43;;;1.17;;
1414;SDS011;702;49.466;11.086;2023-05-10T11:51:20;1.20;;;1.10;;
1414;SDS011;702;49.466;11.086;2023-05-10T11:53:48;1.20;;;1.10;;
1414;SDS011;702;49.466;11.086;2023-05-10T11:56:16;1.27;;;1.17;;
1414;SDS011;702;49.466;11.086;2023-05-10T11:58:43;1.50;;;1.40;;
1414;SDS011;702;49.466;11.086;2023-05-10T12:01:12;1.00;;;0.90;;
1414;SDS011;702;49.466;11.086;2023-05-10T12:03:39;1.40;;;1.30;;
1414;SDS011;702;49.466;11.086;2023-05-10T12:06:08;1.63;;;1.33;;
1414;SDS011;702;49.466;11.086;2023-05-10T12:08:35;1.73;;;1.63;;
1414;SDS011;702;49.466;11.086;2023-05-10T12:11:04;1.60;;;1.47;;
1414;SDS011;702;49.466;11.086;2023-05-10T12:13:36;1.47;;;1.37;;
1414;SDS011;702;49.466;11.086;2023-05-10T12:16:15;1.37;;;1.27;;
1414;SDS011;702;49.466;11.086;2023-05-10T12:18:45;1.40;;;1.27;;
1414;SDS011;702;49.466;11.086;2023-05-10T12:21:16;1.60;;;1.10;;
1414;SDS011;702;49.466;11.086;2023-05-10T12:23:45;1.17;;;1.07;;
1414;SDS011;702;49.466;11.086;2023-05-10T12:26:13;1.13;;;1.03;;
1414;SDS011;702;49.466;11.086;2023-05-10T12:28:41;1.37;;;1.27;;
1414;SDS011;702;49.466;11.086;2023-05-10T12:31:08;2.30;;;1.40;;
1414;SDS011;702;49.466;11.086;2023-05-10T12:33:36;1.63;;;1.40;;
1414;SDS011;702;49.466;11.086;2023-05-10T12:36:06;2.80;;;1.60;;
1414;SDS011;702;49.466;11.086;2023-05-10T12:38:37;1.43;;;1.33;;
1414;SDS011;702;49.466;11.086;2023-05-10T12:41:08;1.67;;;1.57;;
1414;SDS011;702;49.466;11.086;2023-05-10T12:43:37;1.63;;;1.53;;
1414;SDS011;702;49.466;11.086;2023-05-10T12:46:05;1.60;;;1.50;;
1414;SDS011;702;49.466;11.086;2023-05-10T12:48:33;1.30;;;1.20;;
1414;SDS011;702;49.466;11.086;2023-05-10T12:51:01;1.37;;;1.27;;
1414;SDS011;702;49.466;11.086;2023-05-10T12:53:30;1.30;;;1.20;;
1414;SDS011;702;49.466;11.086;2023-05-10T12:55:59;1.43;;;1.00;;
1414;SDS011;702;49.466;11.086;2023-05-10T12:58:26;1.90;;;1.30;;
1414;SDS011;702;49.466;11.086;2023-05-10T13:00:54;1.03;;;0.93;;
1414;SDS011;702;49.466;11.086;2023-05-10T13:03:22;1.87;;;1.07;;
1414;SDS011;702;49.466;11.086;2023-05-10T13:05:49;1.10;;;1.00;;
1414;SDS011;702;49.466;11.086;2023-05-10T13:08:18;1.03;;;0.93;;
1414;SDS011;702;49.466;11.086;2023-05-10T13:10:45;2.10;;;1.10;;
1414;SDS011;702;49.466;11.086;2023-05-10T13:13:15;1.20;;;1.10;;
1414;SDS011;702;49.466;11.086;2023-05-10T13:15:43;1.40;;;1.10;;
1414;SDS011;702;49.466;11.086;2023-05-10T13:18:10;0.90;;;0.90;;
1414;SDS011;702;49.466;11.086;2023-05-10T13:20:38;1.30;;;1.10;;
1414;SDS011;702;49.466;11.086;2023-05-10T13:23:05;1.33;;;0.80;;
1414;SDS011;702;49.466;11.086;2023-05-10T13:25:32;1.30;;;1.20;;
1414;SDS011;702;49.466;11.086;2023-05-10T13:28:00;1.80;;;1.40;;
1414;SDS011;702;49.466;11.086;2023-05-10T13:30:28;0.90;;;0.90;;
1414;SDS011;702;49.466;11.086;2023-05-10T13:32:56;1.17;;;1.07;;
1414;SDS011;702;49.466;11.086;2023-05-10T13:35:23;1.67;;;1.00;;
1414;SDS011;702;49.466;11.086;2023-05-10T13:37:51;1.43;;;1.10;;
1414;SDS011;702;49.466;11.086;2023-05-10T13:40:21;1.20;;;1.10;;
1414;SDS011;702;49.466;11.086;2023-05-10T13:42:48;1.40;;;1.30;;
1414;SDS011;702;49.466;11.086;2023-05-10T13:45:18;1.30;;;1.20;;
1414;SDS011;702;49.466;11.086;2023-05-10T13:47:47;2.13;;;1.53;;
1414;SDS011;702;49.466;11.086;2023-05-10T13:50:16;1.33;;;1.23;;
1414;SDS011;702;49.466;11.086;2023-05-10T13:52:44;1.70;;;1.40;;
1414;SDS011;702;49.466;11.086;2023-05-10T13:55:11;1.50;;;1.40;;
1414;SDS011;702;49.466;11.086;2023-05-10T13:57:38;1.47;;;1.37;;
1414;SDS011;702;49.466;11.086;2023-05-10T14:00:06;1.73;;;1.60;;
1414;SDS011;702;49.466;11.086;2023-05-10T14:02:35;2.30;;;2.10;;
1414;SDS011;702;49.466;11.086;2023-05-10T14:05:04;2.50;;;1.60;;
1414;SDS011;702;49.466;11.086;2023-05-10T14:07:32;2.07;;;1.90;;
1414;SDS011;702;49.466;11.086;2023-05-10T14:09:59;2.60;;;2.20;;
1414;SDS011;702;49.466;11.086;2023-05-10T14:12:26;2.50;;;2.30;;
1414;SDS011;702;49.466;11.086;2023-05-10T14:14:54;5.03;;;2.70;;
1414;SDS011;702;49.466;11.086;2023-05-10T14:17:21;2.47;;;2.27;;
1414;SDS011;702;49.466;11.086;2023-05-10T14:19:48;3.13;;;1.63;;
1414;SDS011;702;49.466;11.086;2023-05-10T14:22:17;2.00;;;1.63;;
1414;SDS011;702;49.466;11.086;2023-05-10T14:24:44;3.70;;;2.00;;
1414;SDS011;702;49.466;11.086;2023-05-10T14:27:12;1.17;;;1.10;;
1414;SDS011;702;49.466;11.086;2023-05-10T14:29:39;1.83;;;1.73;;
1414;SDS011;702;49.466;11.086;2023-05-10T14:32:06;2.00;;;1.33;;
1414;SDS011;702;49.466;11.086;2023-05-10T14:34:34;1.13;;;1.03;;
1414;SDS011;702;49.466;11.086;2023-05-10T14:37:02;1.20;;;1.07;;
1414;SDS011;702;49.466;11.086;2023-05-10T14:39:30;1.40;;;1.30;;
1414;SDS011;702;49.466;11.086;2023-05-10T14:41:58;1.47;;;1.33;;
1414;SDS011;702;49.466;11.086;2023-05-10T14:44:25;1.33;;;1.23;;
1414;SDS011;702;49.466;11.086;2023-05-10T14:46:52;1.83;;;1.70;;
1414;SDS011;702;49.466;11.086;2023-05-10T14:49:20;1.50;;;1.40;;
1414;SDS011;702;49.466;11.086;2023-05-10T14:51:51;1.50;;;1.40;;
1414;SDS011;702;49.466;11.086;2023-05-10T14:54:19;1.30;;;1.20;;
1414;SDS011;702;49.466;11.086;2023-05-10T14:56:48;1.53;;;1.23;;
1414;SDS011;702;49.466;11.086;2023-05-10T14:59:15;1.80;;;1.40;;
1414;SDS011;702;49.466;11.086;2023-05-10T15:01:43;1.57;;;1.40;;
1414;SDS011;702;49.466;11.086;2023-05-10T15:04:10;1.23;;;1.13;;
1414;SDS011;702;49.466;11.086;2023-05-10T15:06:38;1.90;;;1.30;;
1414;SDS011;702;49.466;11.086;2023-05-10T15:09:06;1.70;;;1.53;;
1414;SDS011;702;49.466;11.086;2023-05-10T15:11:34;1.57;;;1.47;;
1414;SDS011;702;49.466;11.086;2023-05-10T15:14:03;2.77;;;2.03;;
1414;SDS011;702;49.466;11.086;2023-05-10T15:16:31;1.40;;;1.30;;
1414;SDS011;702;49.466;11.086;2023-05-10T15:18:58;0.80;;;0.80;;
1414;SDS011;702;49.466;11.086;2023-05-10T15:21:25;1.00;;;0.90;;
1414;SDS011;702;49.466;11.086;2023-05-10T15:23:53;1.27;;;0.90;;
1414;SDS011;702;49.466;11.086;2023-05-10T15:26:20;0.60;;;0.60;;
1414;SDS011;702;49.466;11.086;2023-05-10T15:28:47;1.10;;;1.00;;
1414;SDS011;702;49.466;11.086;2023-05-10T15:31:16;1.10;;;1.00;;